sensor_id;sensor_type;location;lat;lon;timestamp;pressure;altitude;pressure_sealevel;temperature;humidity
4392;BME280;2210;51.938;8.488;2023-07-31T00:02:18;99953.19;;;16.37;100.00
4392;BME280;2210;51.938;8.488;2023-07-31T00:06:22;99954.03;;;16.43;100.00
4392;BME280;2210;51.938;8.488;2023-07-31T00:10:22;99942.59;;;16.44;100.00
4392;BME280;2210;51.938;8.488;2023-07-31T00:14:22;99941.75;;;16.44;100.00
4392;BME280;2210;51.938;8.488;2023-07-31T00:18:23;99942.59;;;16.44;100.00
4392;BME280;2210;51.938;8.488;2023-07-31T00:22:23;99934.22;;;16.49;100.00
4392;BME280;2210;51.938;8.488;2023-07-31T00:26:29;99934.25;;;16.44;100.00
4392;BME280;2210;51.938;8.488;2023-07-31T00:30:30;99937.31;;;16.43;100.00
4392;BME280;2210;51.938;8.488;2023-07-31T00:34:48;99933.16;;;16.40;100.00
4392;BME280;2210;51.938;8.488;2023-07-31T00:38:48;99937.50;;;16.51;100.00
4392;BME280;2210;51.938;8.488;2023-07-31T00:42:49;99928.66;;;16.49;100.00
4392;BME280;2210;51.938;8.488;2023-07-31T00:46:52;99925.22;;;16.58;100.00
4392;BME280;2210;51.938;8.488;2023-07-31T00:50:54;99915.81;;;16.54;100.00
4392;BME280;2210;51.938;8.488;2023-07-31T00:54:57;99924.16;;;16.54;100.00
4392;BME280;2210;51.938;8.488;2023-07-31T00:58:58;99920.19;;;16.60;100.00
4392;BME280;2210;51.938;8.488;2023-07-31T01:02:58;99930.78;;;16.58;100.00
4392;BME280;2210;51.938;8.488;2023-07-31T01:07:56;99919.06;;;16.61;100.00
4392;BME280;2210;51.938;8.488;2023-07-31T01:11:33;99917.75;;;16.53;100.00
4392;BME280;2210;51.938;8.488;2023-07-31T01:15:35;99929.13;;;16.57;100.00
4392;BME280;2210;51.938;8.488;2023-07-31T01:19:35;99925.91;;;16.44;100.00
4392;BME280;2210;51.938;8.488;2023-07-31T01:24:01;99925.94;;;16.39;100.00
4392;BME280;2210;51.938;8.488;2023-07-31T01:28:13;99924.94;;;16.25;100.00
4392;BME280;2210;51.938;8.488;2023-07-31T01:32:17;99926.63;;;16.21;100.00
4392;BME280;2210;51.938;8.488;2023-07-31T01:36:18;99921.69;;;16.12;100.00
4392;BME280;2210;51.938;8.488;2023-07-31T01:40:18;99916.44;;;16.11;100.00
4392;BME280;2210;51.938;8.488;2023-07-31T01:44:22;99917.03;;;16.02;100.00
4392;BME280;2210;51.938;8.488;2023-07-31T01:48:22;99911.47;;;16.02;100.00
4392;BME280;2210;51.938;8.488;2023-07-31T01:52:22;99903.78;;;15.89;100.00
4392;BME280;2210;51.938;8.488;2023-07-31T01:56:22;99896.81;;;15.92;100.00
4392;BME280;2210;51.938;8.488;2023-07-31T02:00:23;99893.53;;;15.79;100.00
4392;BME280;2210;51.938;8.488;2023-07-31T02:04:26;99888.53;;;15.81;100.00
4392;BME280;2210;51.938;8.488;2023-07-31T02:08:26;99882.97;;;15.81;100.00
4392;BME280;2210;51.938;8.488;2023-07-31T02:12:26;99878.56;;;15.80;100.00
4392;BME280;2210;51.938;8.488;2023-07-31T02:16:29;99869.94;;;15.82;100.00
4392;BME280;2210;51.938;8.488;2023-07-31T02:20:33;99874.16;;;15.64;100.00
4392;BME280;2210;51.938;8.488;2023-07-31T02:24:34;99866.97;;;15.63;100.00
4392;BME280;2210;51.938;8.488;2023-07-31T02:28:34;99870.25;;;15.70;100.00
4392;BME280;2210;51.938;8.488;2023-07-31T02:32:37;99860.97;;;15.45;100.00
4392;BME280;2210;51.938;8.488;2023-07-31T02:36:46;99859.81;;;15.51;100.00
4392;BME280;2210;51.938;8.488;2023-07-31T02:40:47;99864.84;;;15.44;100.00
4392;BME280;2210;51.938;8.488;2023-07-31T02:44:48;99855.75;;;15.28;100.00
4392;BME280;2210;51.938;8.488;2023-07-31T02:48:49;99848.03;;;15.20;100.00
4392;BME280;2210;51.938;8.488;2023-07-31T02:52:55;99843.88;;;15.17;100.00
4392;BME280;2210;51.938;8.488;2023-07-31T02:56:55;99843.31;;;15.21;100.00
4392;BME280;2210;51.938;8.488;2023-07-31T03:00:58;99841.06;;;15.23;100.00
4392;BME280;2210;51.938;8.488;2023-07-31T03:04:58;99839.09;;;15.28;100.00
4392;BME280;2210;51.938;8.488;2023-07-31T03:08:58;99842.94;;;15.38;100.00
4392;BME280;2210;51.938;8.488;2023-07-31T03:12:59;99836.47;;;15.52;100.00
4392;BME280;2210;51.938;8.488;2023-07-31T03:16:59;99839.75;;;15.60;100.00
4392;BME280;2210;51.938;8.488;2023-07-31T03:21:02;99836.34;;;15.68;100.00
4392;BME280;2210;51.938;8.488;2023-07-31T03:25:03;99836.59;;;15.77;100.00
4392;BME280;2210;51.938;8.488;2023-07-31T03:29:07;99839.66;;;15.80;100.00
4392;BME280;2210;51.938;8.488;2023-07-31T03:33:08;99839.59;;;15.85;100.00
4392;BME280;2210;51.938;8.488;2023-07-31T03:37:08;99831.78;;;15.93;100.00
4392;BME280;2210;51.938;8.488;2023-07-31T03:41:09;99837.00;;;15.99;100.00
4392;BME280;2210;51.938;8.488;2023-07-31T03:45:10;99821.13;;;16.00;100.00
4392;BME280;2210;51.938;8.488;2023-07-31T03:49:10;99831.66;;;16.03;100.00
4392;BME280;2210;51.938;8.488;2023-07-31T03:53:14;99836.38;;;16.08;100.00
4392;BME280;2210;51.938;8.488;2023-07-31T03:57:14;99826.63;;;16.10;100.00
4392;BME280;2210;51.938;8.488;2023-07-31T04:01:15;99827.44;;;16.11;100.00
4392;BME280;2210;51.938;8.488;2023-07-31T04:05:15;99832.75;;;16.07;100.00
4392;BME280;2210;51.938;8.488;2023-07-31T04:09:25;99837.78;;;16.05;100.00
4392;BME280;2210;51.938;8.488;2023-07-31T04:13:25;99843.34;;;16.05;100.00
4392;BME280;2210;51.938;8.488;2023-07-31T04:17:27;99837.19;;;16.08;100.00
4392;BME280;2210;51.938;8.488;2023-07-31T04:21:30;99833.88;;;16.06;100.00
4392;BME280;2210;51.938;8.488;2023-07-31T04:25:31;99833.63;;;16.02;100.00
4392;BME280;2210;51.938;8.488;2023-07-31T04:29:31;99833.34;;;16.04;100.00
4392;BME280;2210;51.938;8.488;2023-07-31T04:33:32;99838.91;;;16.04;100.00
4392;BME280;2210;51.938;8.488;2023-07-31T04:37:32;99843.63;;;16.04;100.00
4392;BME280;2210;51.938;8.488;2023-07-31T04:41:33;99835.03;;;16.00;100.00
4392;BME280;2210;51.938;8.488;2023-07-31T04:45:33;99830.59;;;15.99;100.00
4392;BME280;2210;51.938;8.488;2023-07-31T04:49:34;99833.34;;;16.04;100.00
4392;BME280;2210;51.938;8.488;2023-07-31T04:53:35;99835.34;;;15.98;100.00
4392;BME280;2210;51.938;8.488;2023-07-31T04:57:36;99834.50;;;15.98;100.00
4392;BME280;2210;51.938;8.488;2023-07-31T05:01:45;99829.78;;;15.98;100.00
4392;BME280;2210;51.938;8.488;2023-07-31T05:05:46;99832.84;;;15.97;100.00
4392;BME280;2210;51.938;8.488;2023-07-31T05:09:49;99827.28;;;15.97;100.00
4392;BME280;2210;51.938;8.488;2023-07-31T05:13:49;99823.41;;;15.98;100.00
4392;BME280;2210;51.938;8.488;2023-07-31T05:17:49;99823.91;;;16.00;100.00
4392;BME280;2210;51.938;8.488;2023-07-31T05:21:50;99822.81;;;16.01;100.00
4392;BME280;2210;51.938;8.488;2023-07-31T05:25:50;99829.66;;;16.09;100.00
4392;BME280;2210;51.938;8.488;2023-07-31T05:29:50;99829.16;;;16.07;100.00
4392;BME280;2210;51.938;8.488;2023-07-31T05:33:54;99836.66;;;16.06;100.00
4392;BME280;2210;51.938;8.488;2023-07-31T05:37:54;99826.69;;;16.00;100.00
4392;BME280;2210;51.938;8.488;2023-07-31T05:41:57;99837.22;;;16.03;100.00
4392;BME280;2210;51.938;8.488;2023-07-31T05:45:58;99831.16;;;16.01;100.00
4392;BME280;2210;51.938;8.488;2023-07-31T05:49:58;99823.00;;;16.10;100.00
4392;BME280;2210;51.938;8.488;2023-07-31T05:53:58;99824.09;;;16.09;100.00
4392;BME280;2210;51.938;8.488;2023-07-31T05:57:59;99823.53;;;16.12;100.00
4392;BME280;2210;51.938;8.488;2023-07-31T06:01:59;99820.47;;;16.13;100.00
4392;BME280;2210;51.938;8.488;2023-07-31T06:05:59;99816.63;;;16.09;100.00
4392;BME280;2210;51.938;8.488;2023-07-31T06:10:00;99817.97;;;16.12;100.00
4392;BME280;2210;51.938;8.488;2023-07-31T06:14:05;99817.69;;;16.13;100.00
4392;BME280;2210;51.938;8.488;2023-07-31T06:18:08;99809.63;;;16.12;100.00
4392;BME280;2210;51.938;8.488;2023-07-31T06:22:09;99809.09;;;16.10;100.00
4392;BME280;2210;51.938;8.488;2023-07-31T06:26:18;99808.53;;;16.13;100.00
4392;BME280;2210;51.938;8.488;2023-07-31T06:30:18;99820.94;;;16.21;100.00
4392;BME280;2210;51.938;8.488;2023-07-31T06:34:22;99817.00;;;16.27;100.00
4392;BME280;2210;51.938;8.488;2023-07-31T06:38:28;99813.16;;;16.23;100.00
4392;BME280;2210;51.938;8.488;2023-07-31T06:42:29;99802.88;;;16.18;100.00
4392;BME280;2210;51.938;8.488;2023-07-31T06:46:29;99782.31;;;16.19;100.00
4392;BME280;2210;51.938;8.488;2023-07-31T06:50:30;99783.94;;;16.25;100.00
4392;BME280;2210;51.938;8.488;2023-07-31T06:54:30;99789.19;;;16.27;100.00
4392;BME280;2210;51.938;8.488;2023-07-31T06:58:31;99794.72;;;16.32;100.00
4392;BME280;2210;51.938;8.488;2023-07-31T07:02:31;99798.31;;;16.32;100.00
4392;BME280;2210;51.938;8.488;2023-07-31T07:06:31;99793.56;;;16.33;100.00
4392;BME280;2210;51.938;8.488;2023-07-31T07:10:32;99784.66;;;16.36;100.00
4392;BME280;2210;51.938;8.488;2023-07-31T07:14:32;99777.69;;;16.39;100.00
4392;BME280;2210;51.938;8.488;2023-07-31T07:18:32;99789.03;;;16.42;100.00
4392;BME280;2210;51.938;8.488;2023-07-31T07:22:32;99798.72;;;16.45;100.00
4392;BME280;2210;51.938;8.488;2023-07-31T07:26:36;99797.31;;;16.47;100.00
4392;BME280;2210;51.938;8.488;2023-07-31T07:30:51;99799.81;;;16.49;100.00
4392;BME280;2210;51.938;8.488;2023-07-31T07:34:51;99806.22;;;16.49;100.00
4392;BME280;2210;51.938;8.488;2023-07-31T07:38:54;99819.88;;;16.46;100.00
4392;BME280;2210;51.938;8.488;2023-07-31T07:42:54;99812.13;;;16.43;100.00
4392;BME280;2210;51.938;8.488;2023-07-31T07:46:55;99800.41;;;16.46;100.00
4392;BME280;2210;51.938;8.488;2023-07-31T07:50:55;99793.41;;;16.48;100.00
4392;BME280;2210;51.938;8.488;2023-07-31T07:54:58;99798.13;;;16.48;100.00
4392;BME280;2210;51.938;8.488;2023-07-31T07:59:00;99792.34;;;16.44;100.00
4392;BME280;2210;51.938;8.488;2023-07-31T08:03:00;99786.50;;;16.46;100.00
4392;BME280;2210;51.938;8.488;2023-07-31T08:07:00;99780.63;;;16.47;100.00
4392;BME280;2210;51.938;8.488;2023-07-31T08:11:01;99772.56;;;16.46;100.00
4392;BME280;2210;51.938;8.488;2023-07-31T08:15:01;99770.84;;;16.50;100.00
4392;BME280;2210;51.938;8.488;2023-07-31T08:19:11;99764.41;;;16.55;100.00
4392;BME280;2210;51.938;8.488;2023-07-31T08:23:14;99755.38;;;16.63;100.00
4392;BME280;2210;51.938;8.488;2023-07-31T08:27:15;99755.34;;;16.68;100.00
4392;BME280;2210;51.938;8.488;2023-07-31T08:31:15;99749.25;;;16.66;100.00
4392;BME280;2210;51.938;8.488;2023-07-31T08:35:19;99744.81;;;16.65;100.00
4392;BME280;2210;51.938;8.488;2023-07-31T08:39:19;99732.56;;;16.66;100.00
4392;BME280;2210;51.938;8.488;2023-07-31T08:43:20;99729.69;;;16.71;100.00
4392;BME280;2210;51.938;8.488;2023-07-31T08:47:21;99724.97;;;16.72;100.00
4392;BME280;2210;51.938;8.488;2023-07-31T08:51:22;99726.31;;;16.74;100.00
4392;BME280;2210;51.938;8.488;2023-07-31T08:55:27;99720.69;;;16.79;100.00
4392;BME280;2210;51.938;8.488;2023-07-31T08:59:29;99732.66;;;16.80;100.00
4392;BME280;2210;51.938;8.488;2023-07-31T09:03:33;99725.16;;;16.75;100.00
4392;BME280;2210;51.938;8.488;2023-07-31T09:07:37;99730.16;;;16.78;100.00
4392;BME280;2210;51.938;8.488;2023-07-31T09:11:38;99723.47;;;16.79;100.00
4392;BME280;2210;51.938;8.488;2023-07-31T09:15:40;99717.91;;;16.79;100.00
4392;BME280;2210;51.938;8.488;2023-07-31T09:19:42;99717.59;;;16.81;100.00
4392;BME280;2210;51.938;8.488;2023-07-31T09:23:44;99721.75;;;16.83;100.00
4392;BME280;2210;51.938;8.488;2023-07-31T09:27:49;99719.19;;;16.87;100.00
4392;BME280;2210;51.938;8.488;2023-07-31T09:31:50;99710.41;;;16.99;100.00
4392;BME280;2210;51.938;8.488;2023-07-31T09:35:51;99710.41;;;16.99;100.00
4392;BME280;2210;51.938;8.488;2023-07-31T09:40:24;99705.09;;;17.02;100.00
4392;BME280;2210;51.938;8.488;2023-07-31T09:44:41;99700.34;;;17.03;100.00
4392;BME280;2210;51.938;8.488;2023-07-31T09:48:41;99704.91;;;16.94;100.00
4392;BME280;2210;51.938;8.488;2023-07-31T09:52:42;99703.19;;;16.98;100.00
4392;BME280;2210;51.938;8.488;2023-07-31T09:56:44;99694.22;;;17.01;100.00
4392;BME280;2210;51.938;8.488;2023-07-31T10:00:45;99693.41;;;17.00;100.00
4392;BME280;2210;51.938;8.488;2023-07-31T10:04:49;99691.44;;;17.01;100.00
4392;BME280;2210;51.938;8.488;2023-07-31T10:08:51;99687.47;;;17.07;100.00
4392;BME280;2210;51.938;8.488;2023-07-31T10:12:53;99682.81;;;17.02;100.00
4392;BME280;2210;51.938;8.488;2023-07-31T10:16:54;99694.69;;;17.08;100.00
4392;BME280;2210;51.938;8.488;2023-07-31T10:20:56;99688.94;;;17.18;100.00
4392;BME280;2210;51.938;8.488;2023-07-31T10:24:58;99685.41;;;17.13;100.00
4392;BME280;2210;51.938;8.488;2023-07-31T10:28:59;99678.59;;;17.05;100.00
4392;BME280;2210;51.938;8.488;2023-07-31T10:33:00;99688.50;;;17.11;100.00
4392;BME280;2210;51.938;8.488;2023-07-31T10:37:25;99680.28;;;17.01;100.00
4392;BME280;2210;51.938;8.488;2023-07-31T10:41:29;99676.31;;;17.07;100.00
4392;BME280;2210;51.938;8.488;2023-07-31T10:45:34;99673.53;;;17.07;100.00
4392;BME280;2210;51.938;8.488;2023-07-31T10:49:48;99672.84;;;17.15;100.00
4392;BME280;2210;51.938;8.488;2023-07-31T10:54:10;99668.41;;;17.14;100.00
4392;BME280;2210;51.938;8.488;2023-07-31T10:58:19;99661.88;;;17.05;100.00
4392;BME280;2210;51.938;8.488;2023-07-31T11:02:26;99660.66;;;17.11;100.00
4392;BME280;2210;51.938;8.488;2023-07-31T11:06:29;99660.03;;;17.14;100.00
4392;BME280;2210;51.938;8.488;2023-07-31T11:10:30;99663.19;;;17.27;100.00
4392;BME280;2210;51.938;8.488;2023-07-31T11:14:30;99654.56;;;17.28;100.00
4392;BME280;2210;51.938;8.488;2023-07-31T11:18:30;99658.75;;;17.26;100.00
4392;BME280;2210;51.938;8.488;2023-07-31T11:22:31;99658.03;;;17.20;100.00
4392;BME280;2210;51.938;8.488;2023-07-31T11:26:31;99658.31;;;17.18;100.00
4392;BME280;2210;51.938;8.488;2023-07-31T11:30:31;99658.19;;;17.10;100.00
4392;BME280;2210;51.938;8.488;2023-07-31T11:34:32;99646.03;;;17.19;100.00
4392;BME280;2210;51.938;8.488;2023-07-31T11:38:33;99650.13;;;17.41;100.00
4392;BME280;2210;51.938;8.488;2023-07-31T11:42:37;99651.19;;;17.45;100.00
4392;BME280;2210;51.938;8.488;2023-07-31T11:46:38;99640.56;;;17.47;100.00
4392;BME280;2210;51.938;8.488;2023-07-31T11:50:39;99637.25;;;17.45;100.00
4392;BME280;2210;51.938;8.488;2023-07-31T11:54:40;99640.56;;;17.47;100.00
4392;BME280;2210;51.938;8.488;2023-07-31T11:58:42;99635.41;;;17.55;100.00
4392;BME280;2210;51.938;8.488;2023-07-31T12:02:44;99628.81;;;17.50;100.00
4392;BME280;2210;51.938;8.488;2023-07-31T12:06:44;99631.69;;;17.45;100.00
4392;BME280;2210;51.938;8.488;2023-07-31T12:10:45;99626.84;;;17.51;100.00
4392;BME280;2210;51.938;8.488;2023-07-31T12:14:50;99632.72;;;17.49;100.00
4392;BME280;2210;51.938;8.488;2023-07-31T12:18:53;99624.19;;;17.60;100.00
4392;BME280;2210;51.938;8.488;2023-07-31T12:22:56;99623.66;;;17.58;100.00
4392;BME280;2210;51.938;8.488;2023-07-31T12:26:57;99629.44;;;17.47;100.00
4392;BME280;2210;51.938;8.488;2023-07-31T12:30:59;99623.16;;;17.56;100.00
4392;BME280;2210;51.938;8.488;2023-07-31T12:35:00;99626.97;;;17.60;100.00
4392;BME280;2210;51.938;8.488;2023-07-31T12:39:01;99626.53;;;17.52;100.00
4392;BME280;2210;51.938;8.488;2023-07-31T12:43:02;99626.31;;;17.49;100.00
4392;BME280;2210;51.938;8.488;2023-07-31T12:47:05;99628.56;;;17.47;100.00
4392;BME280;2210;51.938;8.488;2023-07-31T12:51:06;99627.69;;;17.51;100.00
4392;BME280;2210;51.938;8.488;2023-07-31T12:55:09;99632.09;;;17.52;100.00
4392;BME280;2210;51.938;8.488;2023-07-31T12:59:11;99631.16;;;17.43;100.00
4392;BME280;2210;51.938;8.488;2023-07-31T13:03:11;99633.97;;;17.43;100.00
4392;BME280;2210;51.938;8.488;2023-07-31T13:07:11;99629.63;;;17.51;100.00
4392;BME280;2210;51.938;8.488;2023-07-31T13:11:12;99611.78;;;17.66;100.00
4392;BME280;2210;51.938;8.488;2023-07-31T13:15:12;99613.47;;;17.81;100.00
4392;BME280;2210;51.938;8.488;2023-07-31T13:19:12;99615.66;;;17.84;100.00
4392;BME280;2210;51.938;8.488;2023-07-31T13:23:13;99609.47;;;18.01;100.00
4392;BME280;2210;51.938;8.488;2023-07-31T13:27:13;99592.94;;;18.18;100.00
4392;BME280;2210;51.938;8.488;2023-07-31T13:31:16;99594.06;;;18.31;100.00
4392;BME280;2210;51.938;8.488;2023-07-31T13:35:17;99585.38;;;18.33;100.00
4392;BME280;2210;51.938;8.488;2023-07-31T13:39:17;99578.78;;;18.29;100.00
4392;BME280;2210;51.938;8.488;2023-07-31T13:43:17;99571.63;;;18.36;100.00
4392;BME280;2210;51.938;8.488;2023-07-31T13:47:17;99572.25;;;18.33;100.00
4392;BME280;2210;51.938;8.488;2023-07-31T13:51:18;99568.53;;;18.38;100.00
4392;BME280;2210;51.938;8.488;2023-07-31T13:55:18;99571.47;;;18.56;100.00
4392;BME280;2210;51.938;8.488;2023-07-31T13:59:19;99565.44;;;18.62;100.00
4392;BME280;2210;51.938;8.488;2023-07-31T14:03:22;99561.22;;;18.65;100.00
4392;BME280;2210;51.938;8.488;2023-07-31T14:07:22;99553.25;;;18.58;100.00
4392;BME280;2210;51.938;8.488;2023-07-31T14:11:22;99553.69;;;18.51;100.00
4392;BME280;2210;51.938;8.488;2023-07-31T14:15:23;99543.06;;;18.53;100.00
4392;BME280;2210;51.938;8.488;2023-07-31T14:19:23;99543.88;;;18.54;100.00
4392;BME280;2210;51.938;8.488;2023-07-31T14:23:25;99549.38;;;18.45;100.00
4392;BME280;2210;51.938;8.488;2023-07-31T14:27:25;99569.25;;;18.44;100.00
4392;BME280;2210;51.938;8.488;2023-07-31T14:31:25;99565.22;;;18.36;100.00
4392;BME280;2210;51.938;8.488;2023-07-31T14:35:25;99575.88;;;18.34;100.00
4392;BME280;2210;51.938;8.488;2023-07-31T14:39:26;99583.03;;;18.26;100.00
4392;BME280;2210;51.938;8.488;2023-07-31T14:43:26;99575.47;;;18.27;100.00
4392;BME280;2210;51.938;8.488;2023-07-31T14:47:26;99585.50;;;18.28;100.00
4392;BME280;2210;51.938;8.488;2023-07-31T14:51:27;99578.06;;;18.23;100.00
4392;BME280;2210;51.938;8.488;2023-07-31T14:55:27;99575.56;;;18.22;100.00
4392;BME280;2210;51.938;8.488;2023-07-31T14:59:27;99573.00;;;18.25;100.00
4392;BME280;2210;51.938;8.488;2023-07-31T15:03:27;99577.63;;;18.30;100.00
4392;BME280;2210;51.938;8.488;2023-07-31T15:07:28;99568.13;;;18.31;100.00
4392;BME280;2210;51.938;8.488;2023-07-31T15:11:28;99541.06;;;18.31;100.00
4392;BME280;2210;51.938;8.488;2023-07-31T15:15:35;99547.66;;;18.35;100.00
4392;BME280;2210;51.938;8.488;2023-07-31T15:19:37;99538.13;;;18.36;100.00
4392;BME280;2210;51.938;8.488;2023-07-31T15:23:37;99513.84;;;18.37;100.00
4392;BME280;2210;51.938;8.488;2023-07-31T15:27:39;99527.19;;;18.40;100.00
4392;BME280;2210;51.938;8.488;2023-07-31T15:31:42;99523.25;;;18.41;100.00
4392;BME280;2210;51.938;8.488;2023-07-31T15:35:42;99519.31;;;18.42;100.00
4392;BME280;2210;51.938;8.488;2023-07-31T15:39:43;99538.34;;;18.40;100.00
4392;BME280;2210;51.938;8.488;2023-07-31T15:43:43;99531.09;;;18.39;100.00
4392;BME280;2210;51.938;8.488;2023-07-31T15:47:43;99524.28;;;18.45;100.00
4392;BME280;2210;51.938;8.488;2023-07-31T15:51:44;99525.59;;;18.48;100.00
4392;BME280;2210;51.938;8.488;2023-07-31T15:55:44;99514.03;;;18.41;100.00
4392;BME280;2210;51.938;8.488;2023-07-31T15:59:44;99512.72;;;18.38;100.00
4392;BME280;2210;51.938;8.488;2023-07-31T16:03:45;99508.78;;;18.39;100.00
4392;BME280;2210;51.938;8.488;2023-07-31T16:07:45;99497.50;;;18.44;100.00
4392;BME280;2210;51.938;8.488;2023-07-31T16:11:46;99503.50;;;18.37;100.00
4392;BME280;2210;51.938;8.488;2023-07-31T16:15:46;99493.47;;;18.36;100.00
4392;BME280;2210;51.938;8.488;2023-07-31T16:19:47;99498.13;;;18.41;100.00
4392;BME280;2210;51.938;8.488;2023-07-31T16:23:51;99491.91;;;18.44;100.00
4392;BME280;2210;51.938;8.488;2023-07-31T16:27:51;99482.91;;;18.47;100.00
4392;BME280;2210;51.938;8.488;2023-07-31T16:31:51;99474.03;;;18.45;100.00
4392;BME280;2210;51.938;8.488;2023-07-31T16:35:52;99462.22;;;18.48;100.00
4392;BME280;2210;51.938;8.488;2023-07-31T16:40:01;99456.16;;;18.46;100.00
4392;BME280;2210;51.938;8.488;2023-07-31T16:44:01;99446.31;;;18.49;100.00
4392;BME280;2210;51.938;8.488;2023-07-31T16:48:02;99441.88;;;18.48;100.00
4392;BME280;2210;51.938;8.488;2023-07-31T16:52:02;99437.22;;;18.43;100.00
4392;BME280;2210;51.938;8.488;2023-07-31T16:56:03;99431.97;;;18.42;100.00
4392;BME280;2210;51.938;8.488;2023-07-31T17:00:07;99435.41;;;18.39;100.00
4392;BME280;2210;51.938;8.488;2023-07-31T17:04:10;99438.63;;;18.32;100.00
4392;BME280;2210;51.938;8.488;2023-07-31T17:08:10;99432.84;;;18.28;100.00
4392;BME280;2210;51.938;8.488;2023-07-31T17:12:12;99422.84;;;18.27;100.00
4392;BME280;2210;51.938;8.488;2023-07-31T17:16:12;99413.25;;;18.19;100.00
4392;BME280;2210;51.938;8.488;2023-07-31T17:20:12;99405.53;;;18.16;100.00
4392;BME280;2210;51.938;8.488;2023-07-31T17:24:12;99402.88;;;18.11;100.00
4392;BME280;2210;51.938;8.488;2023-07-31T17:28:16;99393.97;;;18.09;100.00
4392;BME280;2210;51.938;8.488;2023-07-31T17:32:16;99396.28;;;18.07;100.00
4392;BME280;2210;51.938;8.488;2023-07-31T17:36:16;99386.88;;;18.03;100.00
4392;BME280;2210;51.938;8.488;2023-07-31T17:40:28;99382.44;;;18.02;100.00
4392;BME280;2210;51.938;8.488;2023-07-31T17:44:29;99367.97;;;18.00;100.00
4392;BME280;2210;51.938;8.488;2023-07-31T17:48:32;99372.53;;;17.96;100.00
4392;BME280;2210;51.938;8.488;2023-07-31T17:52:33;99365.81;;;17.97;100.00
4392;BME280;2210;51.938;8.488;2023-07-31T17:56:34;99355.19;;;17.99;100.00
4392;BME280;2210;51.938;8.488;2023-07-31T18:00:40;99347.75;;;17.94;100.00
4392;BME280;2210;51.938;8.488;2023-07-31T18:04:43;99347.25;;;17.92;100.00
4392;BME280;2210;51.938;8.488;2023-07-31T18:08:50;99345.28;;;17.93;100.00
4392;BME280;2210;51.938;8.488;2023-07-31T18:12:53;99337.53;;;17.90;100.00
4392;BME280;2210;51.938;8.488;2023-07-31T18:16:54;99339.78;;;17.87;100.00
4392;BME280;2210;51.938;8.488;2023-07-31T18:20:55;99329.28;;;17.84;100.00
4392;BME280;2210;51.938;8.488;2023-07-31T18:24:56;99334.16;;;17.79;100.00
4392;BME280;2210;51.938;8.488;2023-07-31T18:28:56;99340.56;;;17.79;100.00
4392;BME280;2210;51.938;8.488;2023-07-31T18:32:56;99341.69;;;17.78;100.00
4392;BME280;2210;51.938;8.488;2023-07-31T18:36:56;99338.72;;;17.75;100.00
4392;BME280;2210;51.938;8.488;2023-07-31T18:40:57;99329.50;;;17.74;100.00
4392;BME280;2210;51.938;8.488;2023-07-31T18:45:00;99320.66;;;17.72;100.00
4392;BME280;2210;51.938;8.488;2023-07-31T18:49:01;99317.88;;;17.72;100.00
4392;BME280;2210;51.938;8.488;2023-07-31T18:53:01;99317.66;;;17.68;100.00
4392;BME280;2210;51.938;8.488;2023-07-31T18:57:01;99315.19;;;17.67;100.00
4392;BME280;2210;51.938;8.488;2023-07-31T19:01:02;99312.94;;;17.69;100.00
4392;BME280;2210;51.938;8.488;2023-07-31T19:05:03;99310.25;;;17.64;100.00
4392;BME280;2210;51.938;8.488;2023-07-31T19:09:03;99303.66;;;17.60;100.00
4392;BME280;2210;51.938;8.488;2023-07-31T19:13:04;99302.00;;;17.59;100.00
4392;BME280;2210;51.938;8.488;2023-07-31T19:17:07;99306.56;;;17.55;100.00
4392;BME280;2210;51.938;8.488;2023-07-31T19:21:10;99288.84;;;17.50;100.00
4392;BME280;2210;51.938;8.488;2023-07-31T19:25:10;99288.94;;;17.45;100.00
4392;BME280;2210;51.938;8.488;2023-07-31T19:29:11;99271.72;;;17.43;100.00
4392;BME280;2210;51.938;8.488;2023-07-31T19:33:15;99272.34;;;17.40;100.00
4392;BME280;2210;51.938;8.488;2023-07-31T19:37:21;99269.38;;;17.36;100.00
4392;BME280;2210;51.938;8.488;2023-07-31T19:41:21;99266.28;;;17.38;100.00
4392;BME280;2210;51.938;8.488;2023-07-31T19:45:22;99263.50;;;17.38;100.00
4392;BME280;2210;51.938;8.488;2023-07-31T19:49:22;99258.56;;;17.35;100.00
4392;BME280;2210;51.938;8.488;2023-07-31T19:53:22;99256.06;;;17.33;100.00
4392;BME280;2210;51.938;8.488;2023-07-31T19:57:26;99244.72;;;17.30;100.00
4392;BME280;2210;51.938;8.488;2023-07-31T20:01:27;99238.16;;;17.26;100.00
4392;BME280;2210;51.938;8.488;2023-07-31T20:05:27;99232.38;;;17.22;100.00
4392;BME280;2210;51.938;8.488;2023-07-31T20:09:28;99221.88;;;17.19;100.00
4392;BME280;2210;51.938;8.488;2023-07-31T20:13:29;99219.72;;;17.16;100.00
4392;BME280;2210;51.938;8.488;2023-07-31T20:17:33;99201.66;;;17.13;100.00
4392;BME280;2210;51.938;8.488;2023-07-31T20:21:34;99203.72;;;17.08;100.00
4392;BME280;2210;51.938;8.488;2023-07-31T20:25:40;99187.22;;;17.11;100.00
4392;BME280;2210;51.938;8.488;2023-07-31T20:29:44;99157.88;;;17.05;100.00
4392;BME280;2210;51.938;8.488;2023-07-31T20:33:44;99141.75;;;17.02;100.00
4392;BME280;2210;51.938;8.488;2023-07-31T20:37:44;99159.59;;;17.01;100.00
4392;BME280;2210;51.938;8.488;2023-07-31T20:41:48;99156.81;;;17.01;100.00
4392;BME280;2210;51.938;8.488;2023-07-31T20:45:56;99143.53;;;16.98;100.00
4392;BME280;2210;51.938;8.488;2023-07-31T20:49:56;99147.44;;;16.97;100.00
4392;BME280;2210;51.938;8.488;2023-07-31T20:53:56;99129.28;;;16.99;100.00
4392;BME280;2210;51.938;8.488;2023-07-31T20:57:58;99133.03;;;16.95;100.00
4392;BME280;2210;51.938;8.488;2023-07-31T21:01:58;99121.91;;;16.95;100.00
4392;BME280;2210;51.938;8.488;2023-07-31T21:05:59;99115.31;;;16.91;100.00
4392;BME280;2210;51.938;8.488;2023-07-31T21:10:00;99116.13;;;16.91;100.00
4392;BME280;2210;51.938;8.488;2023-07-31T21:14:06;99105.00;;;16.91;100.00
4392;BME280;2210;51.938;8.488;2023-07-31T21:18:10;99105.84;;;16.92;100.00
4392;BME280;2210;51.938;8.488;2023-07-31T21:22:13;99105.84;;;16.92;100.00
4392;BME280;2210;51.938;8.488;2023-07-31T21:26:14;99100.44;;;16.95;100.00
4392;BME280;2210;51.938;8.488;2023-07-31T21:30:14;99093.84;;;16.91;100.00
4392;BME280;2210;51.938;8.488;2023-07-31T21:34:14;99089.13;;;16.92;100.00
4392;BME280;2210;51.938;8.488;2023-07-31T21:38:14;99080.78;;;16.92;100.00